Time;durP1;ratioP1;P1;durP2;ratioP2;P2;SDS_P1;SDS_P2;PMS_P1;PMS_P2;Temp;Humidity;BMP_temperature;BMP_pressure;BME280_temperature;BME280_humidity;BME280_pressure;Samples;Min_cycle;Max_cycle;Signal;HPM_P1;HPM_P2
2022/11/14 00:00:29;;;;;;;;;26.67;22.33;;;;;;;;5031337;28;45541;-73
2022/11/14 00:02:54;;;;;;;;;28.67;22.67;;;;;;;;5035527;28;45686;-73
2022/11/14 00:05:20;;;;;;;;;23.00;21.33;;;;;;;;5035646;28;45526;-73
2022/11/14 00:07:46;;;;;;;;;31.67;28.33;;;;;;;;5035426;28;45475;-73
2022/11/14 00:10:12;;;;;;;;;32.67;27.67;;;;;;;;5036174;28;45411;-73
2022/11/14 00:12:37;;;;;;;;;30.00;28.67;;;;;;;;5036001;28;45435;-73
2022/11/14 00:15:03;;;;;;;;;34.67;28.67;;;;;;;;5035324;28;46211;-73
2022/11/14 00:17:28;;;;;;;;;32.67;25.67;;;;;;;;5034082;28;45441;-73
2022/11/14 00:19:53;;;;;;;;;30.33;25.33;;;;;;;;5035109;28;45665;-73
2022/11/14 00:22:18;;;;;;;;;27.00;26.33;;;;;;;;5035617;28;45579;-73
2022/11/14 00:24:44;;;;;;;;;22.67;22.33;;;;;;;;5033857;28;45464;-73
2022/11/14 00:27:09;;;;;;;;;32.33;27.00;;;;;;;;5035068;28;45460;-73
2022/11/14 00:29:34;;;;;;;;;29.33;25.33;;;;;;;;5035159;28;45341;-73
2022/11/14 00:31:59;;;;;;;;;32.00;28.33;;;;;;;;5034783;28;45381;-73
2022/11/14 00:34:25;;;;;;;;;24.00;24.00;;;;;;;;5024826;28;46249;-73
2022/11/14 00:36:50;;;;;;;;;31.67;24.33;;;;;;;;5033342;28;45345;-73
2022/11/14 00:39:15;;;;;;;;;31.00;24.67;;;;;;;;5033950;28;45490;-73
2022/11/14 00:41:40;;;;;;;;;33.00;27.00;;;;;;;;5034921;28;45459;-73
2022/11/14 00:44:06;;;;;;;;;32.33;25.00;;;;;;;;5033671;28;48398;-73
2022/11/14 00:46:32;;;;;;;;;23.00;21.00;;;;;;;;5035171;28;45548;-73
2022/11/14 00:48:57;;;;;;;;;29.67;23.67;;;;;;;;5037993;28;45349;-73
2022/11/14 00:51:23;;;;;;;;;30.33;25.33;;;;;;;;5037417;28;45783;-73
2022/11/14 00:53:48;;;;;;;;;29.00;25.00;;;;;;;;5036560;28;45460;-73
2022/11/14 00:56:13;;;;;;;;;30.33;25.33;;;;;;;;5037064;28;45538;-73
2022/11/14 00:58:38;;;;;;;;;28.00;27.00;;;;;;;;5037954;28;45607;-73
2022/11/14 01:01:04;;;;;;;;;26.00;26.00;;;;;;;;5037848;28;47239;-73
2022/11/14 01:03:29;;;;;;;;;28.00;25.33;;;;;;;;5031913;28;47746;-73
2022/11/14 01:05:55;;;;;;;;;27.00;22.33;;;;;;;;5037711;28;45321;-73
2022/11/14 01:08:21;;;;;;;;;28.00;26.00;;;;;;;;5035071;28;45501;-73
2022/11/14 01:10:47;;;;;;;;;24.33;21.67;;;;;;;;5035821;28;45607;-72
2022/11/14 01:13:13;;;;;;;;;29.33;24.00;;;;;;;;5037379;28;45490;-73
2022/11/14 01:15:39;;;;;;;;;27.33;24.67;;;;;;;;5034520;28;45658;-73
2022/11/14 01:18:04;;;;;;;;;32.33;28.67;;;;;;;;5035455;28;45483;-73
2022/11/14 01:20:29;;;;;;;;;32.33;25.33;;;;;;;;5034993;28;45488;-73
2022/11/14 01:22:55;;;;;;;;;27.33;25.33;;;;;;;;5035494;28;47484;-73
2022/11/14 01:25:20;;;;;;;;;32.00;28.00;;;;;;;;5035407;28;45612;-73
2022/11/14 01:27:46;;;;;;;;;30.00;27.67;;;;;;;;5035017;28;45412;-73
2022/11/14 01:30:11;;;;;;;;;36.67;28.00;;;;;;;;5037352;28;45408;-73
2022/11/14 01:32:37;;;;;;;;;24.33;22.67;;;;;;;;5036282;28;46316;-72
2022/11/14 01:35:02;;;;;;;;;21.67;20.33;;;;;;;;5035907;28;45651;-73
2022/11/14 01:37:27;;;;;;;;;27.00;23.33;;;;;;;;5036249;28;45439;-73
2022/11/14 01:39:53;;;;;;;;;28.00;25.67;;;;;;;;5036122;28;45928;-73
2022/11/14 01:42:18;;;;;;;;;24.00;23.00;;;;;;;;5019343;28;47528;-72
2022/11/14 01:44:49;;;;;;;;;28.67;25.67;;;;;;;;5035741;28;45420;-73
2022/11/14 01:47:18;;;;;;;;;21.33;20.00;;;;;;;;5035788;28;45440;-73
2022/11/14 01:49:46;;;;;;;;;27.33;24.33;;;;;;;;5033033;28;46209;-73
2022/11/14 01:52:11;;;;;;;;;22.33;22.33;;;;;;;;5034108;28;45613;-73
2022/11/14 01:54:37;;;;;;;;;24.33;21.33;;;;;;;;5033861;28;45389;-73
2022/11/14 01:57:03;;;;;;;;;21.67;20.33;;;;;;;;5035385;28;45670;-73
2022/11/14 01:59:31;;;;;;;;;27.67;24.00;;;;;;;;5035827;28;45667;-73
2022/11/14 02:01:59;;;;;;;;;20.33;19.33;;;;;;;;5035297;28;46303;-73
2022/11/14 02:04:26;;;;;;;;;23.00;21.33;;;;;;;;5032702;28;45404;-73
2022/11/14 02:06:54;;;;;;;;;25.33;22.67;;;;;;;;5029511;28;45503;-73
2022/11/14 02:09:19;;;;;;;;;29.00;25.00;;;;;;;;5033799;28;45597;-73
2022/11/14 02:11:45;;;;;;;;;30.33;24.00;;;;;;;;5032009;28;45365;-73
2022/11/14 02:14:11;;;;;;;;;27.67;26.67;;;;;;;;5033527;28;45635;-73
2022/11/14 02:16:38;;;;;;;;;25.33;18.67;;;;;;;;5035141;28;45490;-73
2022/11/14 02:19:04;;;;;;;;;29.00;26.00;;;;;;;;5037470;28;45502;-73
2022/11/14 02:21:29;;;;;;;;;33.00;28.00;;;;;;;;5035118;28;45789;-73
2022/11/14 02:23:57;;;;;;;;;30.33;27.33;;;;;;;;5035625;28;45328;-72
2022/11/14 02:26:22;;;;;;;;;34.67;29.33;;;;;;;;5035276;28;45787;-73
2022/11/14 02:28:48;;;;;;;;;30.67;25.67;;;;;;;;5036100;28;45467;-73
2022/11/14 02:31:13;;;;;;;;;27.67;26.67;;;;;;;;5036159;28;46928;-73
2022/11/14 02:33:39;;;;;;;;;30.00;26.33;;;;;;;;5034261;28;45657;-73
2022/11/14 02:36:04;;;;;;;;;38.00;30.33;;;;;;;;5031392;28;45428;-73
2022/11/14 02:38:30;;;;;;;;;32.00;27.67;;;;;;;;5027205;28;46369;-72
2022/11/14 02:40:55;;;;;;;;;37.33;30.33;;;;;;;;5035706;28;47104;-73
2022/11/14 02:43:20;;;;;;;;;32.67;24.33;;;;;;;;5035626;28;45645;-73
2022/11/14 02:45:46;;;;;;;;;36.33;29.00;;;;;;;;5027218;28;45456;-73
2022/11/14 02:48:11;;;;;;;;;31.67;28.00;;;;;;;;5030826;28;45658;-73
2022/11/14 02:50:37;;;;;;;;;26.67;25.33;;;;;;;;5033831;28;46480;-73
2022/11/14 02:53:02;;;;;;;;;32.67;28.33;;;;;;;;5033870;28;45502;-72
2022/11/14 02:55:28;;;;;;;;;34.67;29.00;;;;;;;;5034861;28;47017;-73
2022/11/14 02:57:54;;;;;;;;;27.67;23.00;;;;;;;;5032963;28;45692;-73
2022/11/14 03:00:19;;;;;;;;;26.00;23.00;;;;;;;;5032475;28;45879;-73
2022/11/14 03:02:45;;;;;;;;;29.00;25.00;;;;;;;;5035874;28;45379;-73
2022/11/14 03:05:10;;;;;;;;;31.33;22.00;;;;;;;;5033427;28;45559;-73
2022/11/14 03:07:36;;;;;;;;;29.33;25.00;;;;;;;;5036121;28;45804;-73
2022/11/14 03:10:01;;;;;;;;;30.67;25.00;;;;;;;;5032509;28;45974;-73
2022/11/14 03:12:27;;;;;;;;;27.00;22.67;;;;;;;;5035113;28;45519;-73
2022/11/14 03:14:52;;;;;;;;;30.67;24.33;;;;;;;;5035190;28;45713;-73
2022/11/14 03:17:17;;;;;;;;;30.67;27.67;;;;;;;;5035505;28;45526;-73
2022/11/14 03:19:43;;;;;;;;;29.00;23.33;;;;;;;;5035212;28;45635;-73
2022/11/14 03:22:09;;;;;;;;;16.33;14.00;;;;;;;;5033454;28;45595;-72
2022/11/14 03:24:34;;;;;;;;;28.00;25.67;;;;;;;;5034381;28;45481;-73
2022/11/14 03:26:59;;;;;;;;;23.33;21.00;;;;;;;;5034517;28;45278;-72
2022/11/14 03:29:25;;;;;;;;;21.00;17.00;;;;;;;;5035690;28;46347;-73
2022/11/14 03:31:50;;;;;;;;;23.00;18.67;;;;;;;;5034666;28;45562;-72
2022/11/14 03:34:15;;;;;;;;;25.67;21.33;;;;;;;;5033655;28;45429;-73
2022/11/14 03:36:41;;;;;;;;;23.00;20.67;;;;;;;;5034998;28;45274;-73
2022/11/14 03:39:06;;;;;;;;;20.00;18.33;;;;;;;;5033874;28;47686;-72
2022/11/14 03:41:32;;;;;;;;;22.00;20.00;;;;;;;;5035265;28;45685;-73
2022/11/14 03:43:57;;;;;;;;;23.33;19.00;;;;;;;;5033702;28;45571;-73
2022/11/14 03:46:23;;;;;;;;;18.67;17.67;;;;;;;;5034932;28;45358;-73
2022/11/14 03:48:48;;;;;;;;;21.67;18.00;;;;;;;;5033024;28;46859;-73
2022/11/14 03:51:14;;;;;;;;;23.33;19.00;;;;;;;;5029923;28;45757;-73
2022/11/14 03:53:39;;;;;;;;;22.67;20.33;;;;;;;;5033752;28;45463;-73
2022/11/14 03:56:04;;;;;;;;;20.67;20.67;;;;;;;;5033583;28;45531;-73
2022/11/14 03:58:29;;;;;;;;;5.00;4.00;;;;;;;;5034683;28;46214;-72
2022/11/14 04:00:55;;;;;;;;;19.67;18.00;;;;;;;;5029801;28;46102;-73
2022/11/14 04:03:20;;;;;;;;;27.00;20.67;;;;;;;;5035745;28;45717;-73
2022/11/14 04:05:46;;;;;;;;;19.67;17.67;;;;;;;;5035011;28;45622;-73
2022/11/14 04:08:11;;;;;;;;;22.00;20.33;;;;;;;;5029855;28;45763;-73
2022/11/14 04:10:36;;;;;;;;;18.33;15.00;;;;;;;;5033461;28;45476;-72
2022/11/14 04:13:03;;;;;;;;;21.33;17.00;;;;;;;;5031779;28;45456;-73
2022/11/14 04:15:28;;;;;;;;;24.00;19.67;;;;;;;;5033170;28;45710;-76
2022/11/14 04:17:53;;;;;;;;;19.00;18.00;;;;;;;;5031461;28;46101;-76
2022/11/14 04:20:18;;;;;;;;;26.00;22.00;;;;;;;;5034624;28;45428;-76
2022/11/14 04:22:44;;;;;;;;;21.33;18.33;;;;;;;;5036189;28;45425;-75
2022/11/14 04:25:10;;;;;;;;;23.00;21.67;;;;;;;;5037028;28;45622;-77
2022/11/14 04:27:35;;;;;;;;;19.33;18.67;;;;;;;;5034442;28;46871;-76
2022/11/14 04:30:01;;;;;;;;;21.67;20.67;;;;;;;;5030871;28;45422;-76
2022/11/14 04:32:26;;;;;;;;;26.33;21.33;;;;;;;;5032167;28;45772;-76
2022/11/14 04:34:52;;;;;;;;;26.67;19.33;;;;;;;;5037410;28;45510;-76
2022/11/14 04:37:17;;;;;;;;;21.67;20.00;;;;;;;;5029811;28;45476;-75
2022/11/14 04:39:42;;;;;;;;;23.00;20.00;;;;;;;;5031992;28;47006;-76
2022/11/14 04:42:08;;;;;;;;;23.00;20.67;;;;;;;;5031945;28;45883;-76
2022/11/14 04:44:33;;;;;;;;;24.33;22.00;;;;;;;;5038320;28;45571;-76
2022/11/14 04:46:58;;;;;;;;;22.33;20.00;;;;;;;;5035401;28;47047;-76
2022/11/14 04:49:23;;;;;;;;;20.00;17.00;;;;;;;;5032990;28;45358;-77
2022/11/14 04:51:49;;;;;;;;;18.67;15.33;;;;;;;;5035496;28;45396;-76
2022/11/14 04:54:15;;;;;;;;;21.67;21.00;;;;;;;;5034289;28;46234;-76
2022/11/14 04:56:40;;;;;;;;;22.00;18.00;;;;;;;;5035968;28;45556;-77
2022/11/14 04:59:06;;;;;;;;;24.33;22.00;;;;;;;;5037886;28;45640;-76
2022/11/14 05:01:31;;;;;;;;;19.33;18.67;;;;;;;;5035693;28;45557;-76
2022/11/14 05:04:01;;;;;;;;;23.33;21.67;;;;;;;;5031569;28;45536;-76
2022/11/14 05:06:27;;;;;;;;;22.33;20.00;;;;;;;;5032149;28;47461;-76
2022/11/14 05:09:00;;;;;;;;;24.00;21.00;;;;;;;;5035445;28;45743;-76
2022/11/14 05:11:26;;;;;;;;;19.33;19.33;;;;;;;;5034424;28;45723;-76
2022/11/14 05:13:51;;;;;;;;;23.00;20.00;;;;;;;;5036708;28;45492;-76
2022/11/14 05:16:16;;;;;;;;;18.33;18.33;;;;;;;;5036079;28;46151;-73
2022/11/14 05:18:42;;;;;;;;;21.33;18.67;;;;;;;;5037524;28;45443;-73
2022/11/14 05:21:11;;;;;;;;;22.67;21.67;;;;;;;;5036530;28;45672;-73
2022/11/14 05:23:36;;;;;;;;;24.33;21.00;;;;;;;;5036870;28;45343;-73
2022/11/14 05:26:04;;;;;;;;;23.00;21.00;;;;;;;;5036729;28;45507;-73
2022/11/14 05:28:29;;;;;;;;;25.67;20.00;;;;;;;;5034976;28;45550;-73
2022/11/14 05:31:20;;;;;;;;;20.00;19.00;;;;;;;;5034918;28;45444;-73
2022/11/14 05:33:46;;;;;;;;;22.00;19.00;;;;;;;;5037203;28;45549;-73
2022/11/14 05:36:14;;;;;;;;;21.00;19.00;;;;;;;;5037145;28;46348;-73
2022/11/14 05:38:39;;;;;;;;;22.00;19.33;;;;;;;;5035932;28;46333;-73
2022/11/14 05:41:05;;;;;;;;;27.67;22.00;;;;;;;;5034480;28;45554;-73
2022/11/14 05:43:31;;;;;;;;;26.00;21.00;;;;;;;;5038144;28;45407;-73
2022/11/14 05:45:59;;;;;;;;;17.67;16.00;;;;;;;;5036137;28;45614;-73
2022/11/14 05:48:25;;;;;;;;;21.00;15.00;;;;;;;;5036165;28;45508;-72
2022/11/14 05:50:53;;;;;;;;;28.67;20.33;;;;;;;;5035850;28;45506;-73
2022/11/14 05:53:19;;;;;;;;;20.33;19.00;;;;;;;;5034776;28;45390;-73
2022/11/14 05:55:44;;;;;;;;;24.33;20.33;;;;;;;;5035217;28;46130;-73
2022/11/14 05:58:09;;;;;;;;;21.67;19.33;;;;;;;;5023367;28;45523;-73
2022/11/14 06:00:35;;;;;;;;;21.67;19.00;;;;;;;;5034787;28;45501;-73
2022/11/14 06:03:01;;;;;;;;;22.67;19.33;;;;;;;;5029794;28;45622;-74
2022/11/14 06:05:26;;;;;;;;;22.33;19.33;;;;;;;;5025279;28;47196;-73
2022/11/14 06:07:57;;;;;;;;;30.33;21.33;;;;;;;;5035130;28;45540;-75
2022/11/14 06:10:24;;;;;;;;;29.67;25.33;;;;;;;;5028239;28;46559;-74
2022/11/14 06:12:49;;;;;;;;;20.33;20.33;;;;;;;;5034050;28;45643;-73
2022/11/14 06:15:14;;;;;;;;;16.33;14.33;;;;;;;;5033847;28;45395;-76
2022/11/14 06:17:40;;;;;;;;;23.67;20.67;;;;;;;;5030908;28;45521;-78
2022/11/14 06:20:05;;;;;;;;;26.00;23.33;;;;;;;;5022670;28;46825;-77
2022/11/14 06:22:32;;;;;;;;;29.33;23.67;;;;;;;;5027685;28;45612;-75
2022/11/14 06:24:57;;;;;;;;;22.67;18.33;;;;;;;;5029060;28;46688;-78
2022/11/14 06:27:22;;;;;;;;;24.33;21.00;;;;;;;;5031292;28;45714;-76
2022/11/14 06:29:47;;;;;;;;;23.00;22.00;;;;;;;;5031066;28;45762;-75
2022/11/14 06:32:12;;;;;;;;;21.00;19.67;;;;;;;;5029908;28;45512;-75
2022/11/14 06:34:38;;;;;;;;;24.00;22.33;;;;;;;;5026614;28;45585;-76
2022/11/14 06:37:05;;;;;;;;;23.00;21.00;;;;;;;;5029903;28;45747;-78
2022/11/14 06:39:30;;;;;;;;;23.00;22.00;;;;;;;;5025222;28;45565;-79
2022/11/14 06:41:55;;;;;;;;;29.33;23.67;;;;;;;;5035176;28;45620;-79
2022/11/14 06:44:20;;;;;;;;;20.67;19.67;;;;;;;;5033897;28;45452;-77
2022/11/14 06:46:45;;;;;;;;;22.00;20.33;;;;;;;;5030212;28;45412;-74
2022/11/14 06:49:11;;;;;;;;;22.33;22.00;;;;;;;;5033185;28;45669;-76
2022/11/14 06:51:36;;;;;;;;;25.33;21.33;;;;;;;;5032100;28;45452;-81
2022/11/14 06:54:01;;;;;;;;;23.33;21.67;;;;;;;;5031564;28;46024;-83
2022/11/14 06:56:26;;;;;;;;;24.50;19.50;;;;;;;;5032682;28;45507;-83
2022/11/14 06:58:52;;;;;;;;;23.33;21.00;;;;;;;;5034560;28;46407;-82
2022/11/14 07:01:21;;;;;;;;;24.33;21.33;;;;;;;;5031725;28;45463;-82
2022/11/14 07:03:47;;;;;;;;;21.00;17.00;;;;;;;;5035289;28;46689;-82
2022/11/14 07:06:13;;;;;;;;;30.67;26.00;;;;;;;;5026399;28;45660;-81
2022/11/14 07:08:38;;;;;;;;;21.33;19.67;;;;;;;;5024982;28;46159;-77
2022/11/14 07:11:21;;;;;;;;;21.67;19.00;;;;;;;;5034031;28;45468;-81
2022/11/14 07:13:47;;;;;;;;;28.00;18.67;;;;;;;;5033981;28;46098;-81
2022/11/14 07:16:12;;;;;;;;;15.33;15.00;;;;;;;;5035093;28;45461;-80
2022/11/14 07:18:37;;;;;;;;;20.33;19.00;;;;;;;;5029575;28;45492;-82
2022/11/14 07:21:04;;;;;;;;;27.67;17.33;;;;;;;;5035574;28;45499;-82
2022/11/14 07:23:30;;;;;;;;;19.67;16.67;;;;;;;;5027103;28;45664;-82
2022/11/14 07:25:59;;;;;;;;;21.67;15.33;;;;;;;;5028793;28;45579;-82
2022/11/14 07:28:24;;;;;;;;;19.67;16.67;;;;;;;;5030145;28;45558;-83
2022/11/14 07:30:49;;;;;;;;;18.00;16.00;;;;;;;;5033665;28;45405;-84
2022/11/14 07:33:15;;;;;;;;;14.33;14.33;;;;;;;;5034867;28;45312;-81
2022/11/14 07:35:40;;;;;;;;;20.67;16.67;;;;;;;;5030725;28;45449;-85
2022/11/14 07:38:05;;;;;;;;;14.67;14.67;;;;;;;;5022877;28;45500;-77
2022/11/14 07:40:30;;;;;;;;;16.33;15.00;;;;;;;;5033510;28;45391;-78
2022/11/14 07:42:56;;;;;;;;;17.67;16.00;;;;;;;;5034183;28;45736;-84
2022/11/14 07:45:21;;;;;;;;;18.33;17.00;;;;;;;;5027389;28;45767;-75
2022/11/14 07:47:47;;;;;;;;;18.67;16.00;;;;;;;;5029523;28;45599;-84
2022/11/14 07:50:46;;;;;;;;;16.00;15.00;;;;;;;;5028120;28;45629;-83
2022/11/14 07:53:16;;;;;;;;;19.33;15.67;;;;;;;;5196446;22;47388;-84
2022/11/14 07:55:41;;;;;;;;;16.00;15.00;;;;;;;;5030327;28;46928;-84
2022/11/14 07:58:07;;;;;;;;;17.67;15.00;;;;;;;;5038641;22;45603;-76
2022/11/14 08:00:33;;;;;;;;;15.33;14.67;;;;;;;;5033895;28;45512;-75
2022/11/14 08:02:58;;;;;;;;;16.33;14.33;;;;;;;;5034415;28;45807;-79
2022/11/14 08:05:23;;;;;;;;;14.33;12.67;;;;;;;;5028753;28;45520;-74
2022/11/14 08:07:52;;;;;;;;;17.67;16.67;;;;;;;;5028533;28;45507;-80
2022/11/14 08:10:17;;;;;;;;;14.67;13.33;;;;;;;;5021483;28;45509;-80
2022/11/14 08:12:45;;;;;;;;;15.67;13.00;;;;;;;;5034999;28;47132;-85
2022/11/14 08:15:12;;;;;;;;;15.67;14.00;;;;;;;;5031692;28;45848;-82
2022/11/14 08:17:37;;;;;;;;;14.33;13.00;;;;;;;;5034509;28;45456;-79
2022/11/14 08:20:03;;;;;;;;;14.67;12.00;;;;;;;;5033366;28;45436;-79
2022/11/14 08:22:29;;;;;;;;;14.67;13.00;;;;;;;;5029783;28;46249;-77
2022/11/14 08:24:55;;;;;;;;;17.00;15.33;;;;;;;;5017026;28;45531;-77
2022/11/14 08:27:20;;;;;;;;;17.33;15.00;;;;;;;;5028450;28;45706;-77
2022/11/14 08:29:45;;;;;;;;;16.67;14.00;;;;;;;;5031812;28;45485;-77
2022/11/14 08:32:10;;;;;;;;;20.00;18.67;;;;;;;;5031037;28;46052;-77
2022/11/14 08:34:35;;;;;;;;;17.33;16.33;;;;;;;;5024635;28;45444;-78
2022/11/14 08:37:01;;;;;;;;;17.00;14.67;;;;;;;;5032249;28;45476;-77
2022/11/14 08:39:27;;;;;;;;;19.33;14.67;;;;;;;;5029216;28;45266;-77
2022/11/14 08:41:52;;;;;;;;;18.67;17.00;;;;;;;;5029200;28;47417;-78
2022/11/14 08:44:17;;;;;;;;;15.33;15.33;;;;;;;;5028372;28;45661;-83
2022/11/14 08:46:42;;;;;;;;;13.67;13.33;;;;;;;;5026950;28;45626;-81
2022/11/14 08:49:07;;;;;;;;;16.67;14.67;;;;;;;;5035245;28;45467;-82
2022/11/14 08:51:33;;;;;;;;;19.00;16.00;;;;;;;;5033577;28;46276;-84
2022/11/14 08:53:58;;;;;;;;;16.00;14.67;;;;;;;;5030189;28;45531;-83
2022/11/14 08:56:23;;;;;;;;;16.00;16.00;;;;;;;;5030606;28;45549;-82
2022/11/14 08:58:48;;;;;;;;;20.33;18.33;;;;;;;;5033093;28;45470;-82
2022/11/14 09:01:14;;;;;;;;;17.00;14.67;;;;;;;;5033716;28;45953;-83
2022/11/14 09:03:39;;;;;;;;;21.33;18.00;;;;;;;;5035476;28;45428;-82
2022/11/14 09:06:04;;;;;;;;;17.33;16.67;;;;;;;;5035330;28;45326;-83
2022/11/14 09:08:29;;;;;;;;;17.33;17.33;;;;;;;;5035889;28;45396;-82
2022/11/14 09:10:58;;;;;;;;;17.00;15.33;;;;;;;;5038902;28;47341;-83
2022/11/14 09:13:23;;;;;;;;;17.67;16.00;;;;;;;;5038709;28;45468;-83
2022/11/14 09:15:48;;;;;;;;;14.33;14.33;;;;;;;;5037162;28;45415;-75
2022/11/14 09:18:14;;;;;;;;;21.00;17.67;;;;;;;;5039007;28;45474;-75
2022/11/14 09:20:39;;;;;;;;;18.67;18.33;;;;;;;;5038694;28;46527;-75
2022/11/14 09:23:05;;;;;;;;;19.00;15.67;;;;;;;;5036986;28;45385;-75
2022/11/14 09:25:30;;;;;;;;;24.00;19.00;;;;;;;;5038702;28;45490;-75
2022/11/14 09:27:56;;;;;;;;;17.67;15.00;;;;;;;;5038930;28;45414;-75
2022/11/14 09:30:21;;;;;;;;;20.67;16.67;;;;;;;;5037098;28;48408;-75
2022/11/14 09:32:47;;;;;;;;;15.67;15.67;;;;;;;;5034813;28;45489;-74
2022/11/14 09:35:12;;;;;;;;;19.67;15.67;;;;;;;;5038737;28;45324;-75
2022/11/14 09:37:38;;;;;;;;;21.33;17.33;;;;;;;;5036832;28;45502;-76
2022/11/14 09:40:03;;;;;;;;;19.00;16.67;;;;;;;;5038511;28;45727;-76
2022/11/14 09:42:28;;;;;;;;;16.67;14.33;;;;;;;;5037631;28;45449;-75
2022/11/14 09:44:54;;;;;;;;;18.67;15.33;;;;;;;;5038224;28;45322;-76
2022/11/14 09:47:23;;;;;;;;;17.33;16.00;;;;;;;;5037415;28;46993;-76
2022/11/14 09:49:50;;;;;;;;;14.33;11.33;;;;;;;;5035105;28;48297;-75
2022/11/14 09:52:24;;;;;;;;;17.33;14.33;;;;;;;;5035542;28;45550;-76
2022/11/14 09:54:58;;;;;;;;;17.67;16.00;;;;;;;;5035067;28;45853;-75
2022/11/14 09:57:24;;;;;;;;;17.00;14.00;;;;;;;;5036570;28;45386;-76
2022/11/14 09:59:49;;;;;;;;;17.00;15.67;;;;;;;;5037363;28;46304;-75
2022/11/14 10:02:17;;;;;;;;;19.67;16.00;;;;;;;;5036191;28;45435;-76
2022/11/14 10:04:55;;;;;;;;;20.33;18.67;;;;;;;;5038571;28;45384;-76
2022/11/14 10:07:36;;;;;;;;;16.33;15.00;;;;;;;;5038209;28;45551;-76
2022/11/14 10:10:20;;;;;;;;;19.00;15.00;;;;;;;;5036554;28;45910;-76
2022/11/14 10:13:15;;;;;;;;;19.33;16.33;;;;;;;;5037763;28;45385;-76
2022/11/14 10:15:50;;;;;;;;;20.00;17.33;;;;;;;;5033263;28;45442;-76
2022/11/14 10:18:15;;;;;;;;;21.33;19.00;;;;;;;;5037962;28;45486;-76
2022/11/14 10:20:49;;;;;;;;;15.67;15.67;;;;;;;;5037122;28;46265;-75
2022/11/14 10:23:32;;;;;;;;;15.00;14.00;;;;;;;;5037849;28;45479;-76
2022/11/14 10:26:06;;;;;;;;;17.00;15.33;;;;;;;;5038029;28;45676;-76
2022/11/14 10:28:50;;;;;;;;;15.33;13.00;;;;;;;;5026626;28;45419;-76
2022/11/14 10:31:22;;;;;;;;;18.67;13.67;;;;;;;;5029578;28;46491;-75
2022/11/14 10:34:06;;;;;;;;;12.67;11.33;;;;;;;;5024147;28;45354;-75
2022/11/14 10:36:32;;;;;;;;;20.33;16.33;;;;;;;;5027631;28;45437;-76
2022/11/14 10:39:16;;;;;;;;;19.33;17.00;;;;;;;;5030960;28;45615;-75
2022/11/14 10:41:42;;;;;;;;;11.33;9.00;;;;;;;;5034484;28;47125;-75
2022/11/14 10:44:12;;;;;;;;;12.67;12.33;;;;;;;;5035308;28;45448;-76
2022/11/14 10:46:40;;;;;;;;;12.33;12.33;;;;;;;;5035722;28;45568;-75
2022/11/14 10:49:17;;;;;;;;;15.33;13.67;;;;;;;;5036936;28;45429;-75
2022/11/14 10:51:45;;;;;;;;;15.67;15.67;;;;;;;;5036639;28;45292;-76
2022/11/14 10:54:17;;;;;;;;;16.67;16.00;;;;;;;;5036513;28;45558;-75
2022/11/14 10:56:49;;;;;;;;;16.67;14.67;;;;;;;;5036751;28;46132;-76
2022/11/14 10:59:15;;;;;;;;;18.00;15.67;;;;;;;;5036707;28;45586;-75
2022/11/14 11:01:42;;;;;;;;;16.33;14.67;;;;;;;;5036201;28;45542;-75
2022/11/14 11:04:25;;;;;;;;;21.00;19.67;;;;;;;;5035130;28;45365;-76
2022/11/14 11:06:52;;;;;;;;;14.33;13.67;;;;;;;;5036556;28;45385;-75
2022/11/14 11:12:04;;;;;;;;;19.67;16.67;;;;;;;;5023007;28;45347;-76
2022/11/14 11:14:30;;;;;;;;;14.67;10.67;;;;;;;;5036285;28;45677;-77
2022/11/14 11:17:10;;;;;;;;;19.00;17.67;;;;;;;;5035008;28;45436;-77
2022/11/14 11:19:36;;;;;;;;;16.33;16.33;;;;;;;;5035998;28;45464;-78
2022/11/14 11:22:02;;;;;;;;;20.67;17.33;;;;;;;;5034724;28;47176;-77
2022/11/14 11:24:30;;;;;;;;;18.67;17.33;;;;;;;;5035695;28;45352;-77
2022/11/14 11:27:12;;;;;;;;;19.33;17.00;;;;;;;;5036295;28;45463;-77
2022/11/14 11:29:37;;;;;;;;;23.33;16.67;;;;;;;;5034897;28;45568;-76
2022/11/14 11:32:03;;;;;;;;;16.67;15.00;;;;;;;;5031335;28;45385;-76
2022/11/14 11:34:30;;;;;;;;;21.00;19.00;;;;;;;;5036270;28;45453;-76
2022/11/14 11:37:04;;;;;;;;;18.67;16.67;;;;;;;;5034916;28;45466;-76
2022/11/14 11:39:32;;;;;;;;;18.00;17.33;;;;;;;;5036040;28;45792;-76
2022/11/14 11:42:00;;;;;;;;;21.00;15.00;;;;;;;;5036164;28;45956;-75
2022/11/14 11:44:32;;;;;;;;;17.67;15.33;;;;;;;;5035789;28;45463;-77
2022/11/14 11:46:59;;;;;;;;;18.00;16.33;;;;;;;;5034172;28;45651;-76
2022/11/14 11:49:28;;;;;;;;;18.00;18.00;;;;;;;;5033298;28;45425;-77
2022/11/14 11:51:54;;;;;;;;;18.67;14.33;;;;;;;;5032892;28;46193;-77
2022/11/14 11:54:25;;;;;;;;;18.00;16.67;;;;;;;;5029299;28;45562;-79
2022/11/14 11:56:53;;;;;;;;;18.67;16.00;;;;;;;;5035929;28;45405;-77
2022/11/14 11:59:40;;;;;;;;;17.00;16.00;;;;;;;;5035636;28;45542;-78
2022/11/14 12:02:22;;;;;;;;;18.33;15.00;;;;;;;;5029789;28;46322;-78
2022/11/14 12:04:49;;;;;;;;;17.33;15.67;;;;;;;;5035740;28;45457;-78
2022/11/14 12:07:17;;;;;;;;;15.33;15.33;;;;;;;;5034269;28;45770;-78
2022/11/14 12:09:43;;;;;;;;;18.67;17.67;;;;;;;;5035771;28;45586;-78
2022/11/14 12:12:20;;;;;;;;;16.00;13.67;;;;;;;;5035233;28;46743;-78
2022/11/14 12:14:57;;;;;;;;;22.00;18.00;;;;;;;;5036007;28;45364;-81
2022/11/14 12:17:41;;;;;;;;;18.33;17.67;;;;;;;;5035406;28;45398;-75
2022/11/14 12:20:19;;;;;;;;;21.00;16.50;;;;;;;;5034292;28;45525;-75
2022/11/14 12:23:02;;;;;;;;;17.00;17.00;;;;;;;;5033911;28;45797;-74
2022/11/14 12:25:46;;;;;;;;;17.67;16.00;;;;;;;;5035253;28;45343;-74
2022/11/14 12:28:20;;;;;;;;;16.33;16.33;;;;;;;;5035497;28;45461;-76
2022/11/14 12:30:47;;;;;;;;;17.00;16.00;;;;;;;;5035751;28;45344;-76
2022/11/14 12:33:33;;;;;;;;;17.67;15.67;;;;;;;;5030587;28;46177;-76
2022/11/14 12:35:59;;;;;;;;;16.33;16.33;;;;;;;;5031615;28;45432;-77
2022/11/14 12:38:27;;;;;;;;;15.67;14.33;;;;;;;;5035034;28;45515;-76
2022/11/14 12:40:54;;;;;;;;;14.67;13.33;;;;;;;;5034136;28;45765;-76
2022/11/14 12:43:27;;;;;;;;;9.33;9.33;;;;;;;;5034901;28;47433;-76
2022/11/14 12:45:52;;;;;;;;;18.33;17.00;;;;;;;;5038403;28;45423;-76
2022/11/14 12:48:24;;;;;;;;;18.33;18.33;;;;;;;;5037099;28;45311;-76
2022/11/14 12:50:49;;;;;;;;;21.67;16.33;;;;;;;;5037618;28;45704;-76
2022/11/14 12:53:36;;;;;;;;;19.33;17.33;;;;;;;;5036914;28;47336;-76
2022/11/14 12:56:04;;;;;;;;;23.00;15.67;;;;;;;;5025300;28;45916;-76
2022/11/14 12:58:41;;;;;;;;;19.33;18.33;;;;;;;;5038241;28;45393;-76
2022/11/14 13:01:18;;;;;;;;;16.67;16.33;;;;;;;;5038703;28;45527;-75
2022/11/14 13:03:46;;;;;;;;;19.33;17.33;;;;;;;;5036775;28;46552;-75
2022/11/14 13:06:12;;;;;;;;;17.33;14.67;;;;;;;;5036301;28;45927;-74
2022/11/14 13:09:16;;;;;;;;;21.33;18.67;;;;;;;;5036902;28;45448;-74
2022/11/14 13:22:45;;;;;;;;;20.00;16.67;;;;;;;;4996012;28;45701;-80
2022/11/14 13:25:10;;;;;;;;;16.00;15.33;;;;;;;;4995624;28;46091;-80
2022/11/14 13:27:36;;;;;;;;;20.33;17.00;;;;;;;;4996051;28;45798;-78
2022/11/14 13:30:06;;;;;;;;;19.00;16.67;;;;;;;;4996136;28;45956;-79
2022/11/14 13:32:51;;;;;;;;;16.00;13.50;;;;;;;;4987178;28;45537;-82
2022/11/14 13:35:35;;;;;;;;;16.50;16.00;;;;;;;;4995025;28;46623;-77
2022/11/14 13:38:19;;;;;;;;;10.33;10.33;;;;;;;;4995349;28;45548;-81
2022/11/14 13:41:03;;;;;;;;;10.67;10.67;;;;;;;;4995602;28;45721;-77
2022/11/14 13:44:03;;;;;;;;;13.67;11.33;;;;;;;;5024869;28;45438;-80
2022/11/14 13:46:43;;;;;;;;;10.00;9.00;;;;;;;;5031867;28;48083;-80
2022/11/14 13:49:08;;;;;;;;;11.00;11.00;;;;;;;;5033633;28;45473;-80
2022/11/14 13:51:34;;;;;;;;;12.67;12.67;;;;;;;;5035269;28;45424;-80
2022/11/14 13:53:59;;;;;;;;;12.00;10.67;;;;;;;;5035078;28;45390;-80
2022/11/14 13:56:33;;;;;;;;;15.00;10.33;;;;;;;;5034785;28;46308;-80
2022/11/14 13:59:20;;;;;;;;;13.33;13.33;;;;;;;;5035317;28;45499;-80
2022/11/14 14:02:01;;;;;;;;;15.33;13.67;;;;;;;;5030299;28;45520;-80
2022/11/14 14:04:37;;;;;;;;;16.33;11.67;;;;;;;;5035727;28;45519;-80
2022/11/14 14:07:05;;;;;;;;;12.00;10.67;;;;;;;;5018615;28;48456;-80
2022/11/14 14:09:42;;;;;;;;;15.50;13.50;;;;;;;;5035198;28;45542;-82
2022/11/14 14:12:17;;;;;;;;;13.33;13.33;;;;;;;;5035182;28;45470;-82
2022/11/14 14:14:51;;;;;;;;;13.00;13.00;;;;;;;;5025042;28;45496;-81
2022/11/14 14:17:37;;;;;;;;;12.33;12.33;;;;;;;;5007693;28;45522;-81
2022/11/14 14:20:17;;;;;;;;;13.00;13.00;;;;;;;;5035207;28;45600;-81
2022/11/14 14:22:51;;;;;;;;;12.67;11.33;;;;;;;;5035017;28;45289;-81
2022/11/14 14:25:28;;;;;;;;;14.67;14.67;;;;;;;;5037466;28;45441;-81
2022/11/14 14:27:59;;;;;;;;;14.33;12.00;;;;;;;;5033942;28;46245;-82
2022/11/14 14:30:24;;;;;;;;;16.33;14.67;;;;;;;;5037223;28;45546;-75
2022/11/14 14:33:08;;;;;;;;;16.33;14.00;;;;;;;;5032265;28;45471;-76
2022/11/14 14:35:35;;;;;;;;;11.00;11.00;;;;;;;;5037224;28;45353;-76